Aviation Digital Data Service (ADDS)

Output produced by METARs form (0521 UTC 31 July 2014)
found at http://aviationweather.gov/adds/metars/
 
KJAX 302320Z 3100/3124 06006KT P6SM VCSH FEW060 BKN250 
     FM310200 VRB03KT P6SM FEW020 SCT060 
     FM311400 15006KT P6SM SCT060 SCT250